FDX659 KJFK-SOCA
Flight info
| Callsign | FDX659 |
|---|---|
| Flight time | N/A |
| Altitude | FL330 |
| Route | SHIPP Y487 KINGG KINER L461 BOVIC PIREX 25N062W RKDIA L576 CITRS UL576 TRAPP UM786 KALEP KALE1U |
| Aircraft | B77F/H-SDE1E2E3FGHIJ2J3J4J5M1RWXY/LB1D1 |
Departure
| Time | 2026-05-01 15:07 |
|---|---|
| Airport | John F. Kennedy International Airport (KJFK) |
Arrival
| Time | N/A |
|---|---|
| Airport | Cayenne – Félix Eboué Airport (SOCA) |
| Time | Latitude | Longitude | Altitude | Speed | Heading |
|---|---|---|---|---|---|
| 2026-05-01 14:37 | 40.65965 | -73.78787 | 20 ft | 0 kts | 301° |
| 2026-05-01 14:51 | 40.65961 | -73.78778 | 20 ft | 2 kts | 301° |
| 2026-05-01 14:51 | 40.65946 | -73.78744 | 20 ft | 2 kts | 301° |
| 2026-05-01 14:52 | 40.65935 | -73.78716 | 20 ft | 2 kts | 281° |
| 2026-05-01 14:52 | 40.65934 | -73.78697 | 20 ft | 2 kts | 267° |
| 2026-05-01 14:52 | 40.65940 | -73.78662 | 20 ft | 2 kts | 240° |
| 2026-05-01 14:53 | 40.65949 | -73.78646 | 20 ft | 2 kts | 226° |
| 2026-05-01 14:53 | 40.65958 | -73.78635 | 20 ft | 2 kts | 214° |
| 2026-05-01 14:53 | 40.65963 | -73.78631 | 20 ft | 1 kts | 210° |
| 2026-05-01 14:55 | 40.65941 | -73.78647 | 20 ft | 8 kts | 208° |
| 2026-05-01 14:55 | 40.65900 | -73.78678 | 20 ft | 7 kts | 210° |
| 2026-05-01 14:56 | 40.65856 | -73.78713 | 20 ft | 7 kts | 211° |
| 2026-05-01 14:56 | 40.65809 | -73.78736 | 20 ft | 8 kts | 179° |
| 2026-05-01 14:56 | 40.65763 | -73.78696 | 20 ft | 10 kts | 126° |
| 2026-05-01 14:56 | 40.65722 | -73.78615 | 20 ft | 12 kts | 119° |
| 2026-05-01 14:57 | 40.65678 | -73.78518 | 20 ft | 13 kts | 122° |
| 2026-05-01 14:57 | 40.65585 | -73.78311 | 20 ft | 15 kts | 118° |
| 2026-05-01 14:57 | 40.65529 | -73.78188 | 20 ft | 16 kts | 124° |
| 2026-05-01 14:58 | 40.65472 | -73.78068 | 20 ft | 17 kts | 119° |
| 2026-05-01 14:58 | 40.65420 | -73.77948 | 20 ft | 18 kts | 118° |
| 2026-05-01 14:58 | 40.65353 | -73.77798 | 20 ft | 18 kts | 122° |
| 2026-05-01 14:58 | 40.65286 | -73.77651 | 20 ft | 19 kts | 120° |
| 2026-05-01 14:59 | 40.65225 | -73.77523 | 20 ft | 19 kts | 123° |
| 2026-05-01 14:59 | 40.65192 | -73.77451 | 20 ft | 18 kts | 120° |
| 2026-05-01 14:59 | 40.65188 | -73.77441 | 20 ft | 18 kts | 119° |
| 2026-05-01 14:59 | 40.65130 | -73.77313 | 20 ft | 17 kts | 121° |
| 2026-05-01 15:00 | 40.65027 | -73.77080 | 20 ft | 14 kts | 121° |
| 2026-05-01 15:00 | 40.64982 | -73.76983 | 20 ft | 13 kts | 120° |
| 2026-05-01 15:00 | 40.64947 | -73.76902 | 20 ft | 12 kts | 120° |
| 2026-05-01 15:01 | 40.64905 | -73.76809 | 20 ft | 10 kts | 120° |
| 2026-05-01 15:01 | 40.64863 | -73.76739 | 20 ft | 9 kts | 161° |
| 2026-05-01 15:01 | 40.64812 | -73.76755 | 20 ft | 9 kts | 202° |
| 2026-05-01 15:01 | 40.64743 | -73.76797 | 20 ft | 14 kts | 204° |
| 2026-05-01 15:02 | 40.64645 | -73.76880 | 20 ft | 18 kts | 212° |
| 2026-05-01 15:02 | 40.64609 | -73.76908 | 20 ft | 18 kts | 210° |
| 2026-05-01 15:02 | 40.64449 | -73.76989 | 20 ft | 15 kts | 192° |
| 2026-05-01 15:02 | 40.64351 | -73.77045 | 20 ft | 18 kts | 208° |
| 2026-05-01 15:03 | 40.64232 | -73.77138 | 20 ft | 23 kts | 209° |
| 2026-05-01 15:03 | 40.64110 | -73.77227 | 20 ft | 21 kts | 207° |
| 2026-05-01 15:03 | 40.63987 | -73.77324 | 20 ft | 19 kts | 221° |
| 2026-05-01 15:03 | 40.63884 | -73.77408 | 20 ft | 16 kts | 207° |
| 2026-05-01 15:04 | 40.63802 | -73.77470 | 20 ft | 15 kts | 215° |
| 2026-05-01 15:04 | 40.63721 | -73.77539 | 20 ft | 13 kts | 211° |
| 2026-05-01 15:04 | 40.63644 | -73.77597 | 20 ft | 12 kts | 207° |
| 2026-05-01 15:04 | 40.63576 | -73.77650 | 20 ft | 14 kts | 211° |
| 2026-05-01 15:05 | 40.63482 | -73.77723 | 19 ft | 20 kts | 211° |
| 2026-05-01 15:05 | 40.63374 | -73.77829 | 17 ft | 19 kts | 231° |
| 2026-05-01 15:05 | 40.63322 | -73.77954 | 17 ft | 14 kts | 226° |
| 2026-05-01 15:05 | 40.63256 | -73.77998 | 17 ft | 12 kts | 198° |
| 2026-05-01 15:06 | 40.63209 | -73.78062 | 17 ft | 10 kts | 278° |
| 2026-05-01 15:06 | 40.63220 | -73.78099 | 17 ft | 0 kts | 297° |
| 2026-05-01 15:06 | 40.63264 | -73.78210 | 17 ft | 40 kts | 300° |
| 2026-05-01 15:07 | 40.63541 | -73.78818 | 17 ft | 112 kts | 300° |
| 2026-05-01 15:07 | 40.64036 | -73.79899 | 23 ft | 169 kts | 297° |
| 2026-05-01 15:07 | 40.64574 | -73.81133 | 511 ft | 177 kts | 300° |
| 2026-05-01 15:07 | 40.65434 | -73.82329 | 1266 ft | 186 kts | 331° |
| 2026-05-01 15:08 | 40.66762 | -73.82604 | 1673 ft | 208 kts | 7° |
| 2026-05-01 15:08 | 40.67980 | -73.81812 | 2081 ft | 230 kts | 40° |
| 2026-05-01 15:08 | 40.68854 | -73.80021 | 2569 ft | 256 kts | 70° |
| 2026-05-01 15:08 | 40.68938 | -73.77629 | 3296 ft | 273 kts | 101° |
| 2026-05-01 15:09 | 40.68187 | -73.75482 | 4114 ft | 281 kts | 127° |
| 2026-05-01 15:09 | 40.66818 | -73.73947 | 4933 ft | 285 kts | 153° |
| 2026-05-01 15:09 | 40.64896 | -73.73172 | 5799 ft | 288 kts | 171° |
| 2026-05-01 15:09 | 40.62970 | -73.72765 | 6711 ft | 290 kts | 173° |
| 2026-05-01 15:10 | 40.61264 | -73.72267 | 7428 ft | 297 kts | 159° |
| 2026-05-01 15:10 | 40.57980 | -73.68673 | 9001 ft | 312 kts | 128° |
| 2026-05-01 15:10 | 40.56734 | -73.66576 | 9764 ft | 315 kts | 126° |
| 2026-05-01 15:11 | 40.55411 | -73.64249 | 10389 ft | 325 kts | 125° |
| 2026-05-01 15:11 | 40.52627 | -73.59315 | 11254 ft | 359 kts | 126° |
| 2026-05-01 15:11 | 40.51154 | -73.56708 | 11749 ft | 373 kts | 126° |
| 2026-05-01 15:12 | 40.49575 | -73.53916 | 12221 ft | 389 kts | 127° |
| 2026-05-01 15:12 | 40.46328 | -73.48185 | 13355 ft | 414 kts | 127° |
| 2026-05-01 15:12 | 40.44593 | -73.45126 | 14115 ft | 421 kts | 128° |
| 2026-05-01 15:13 | 40.39289 | -73.35795 | 16472 ft | 436 kts | 129° |
| 2026-05-01 15:14 | 40.35740 | -73.29572 | 17934 ft | 444 kts | 130° |
| 2026-05-01 15:14 | 40.33866 | -73.26292 | 18624 ft | 450 kts | 131° |
| 2026-05-01 15:14 | 40.30296 | -73.19563 | 20140 ft | 458 kts | 127° |
| 2026-05-01 15:15 | 40.26797 | -73.12438 | 21379 ft | 470 kts | 127° |
| 2026-05-01 15:15 | 40.23242 | -73.05258 | 22732 ft | 475 kts | 127° |
| 2026-05-01 15:16 | 40.19615 | -72.97981 | 23913 ft | 483 kts | 127° |
| 2026-05-01 15:16 | 40.15898 | -72.90558 | 24902 ft | 493 kts | 127° |
| 2026-05-01 15:17 | 40.12089 | -72.82974 | 25806 ft | 503 kts | 127° |
| 2026-05-01 15:18 | 40.06492 | -72.71132 | 27182 ft | 519 kts | 124° |
| 2026-05-01 15:18 | 40.04670 | -72.67062 | 27614 ft | 524 kts | 124° |
| 2026-05-01 15:19 | 39.99040 | -72.54577 | 28951 ft | 538 kts | 124° |
| 2026-05-01 15:19 | 39.95236 | -72.46121 | 30023 ft | 543 kts | 123° |
| 2026-05-01 15:19 | 39.93384 | -72.41886 | 30594 ft | 542 kts | 123° |
| 2026-05-01 15:20 | 39.89646 | -72.33354 | 31561 ft | 544 kts | 124° |
| 2026-05-01 15:20 | 39.87760 | -72.29070 | 31911 ft | 547 kts | 124° |
| 2026-05-01 15:20 | 39.85870 | -72.24782 | 32294 ft | 549 kts | 124° |
| 2026-05-01 15:21 | 39.83974 | -72.20491 | 32731 ft | 549 kts | 124° |
| 2026-05-01 15:21 | 39.82073 | -72.16195 | 32972 ft | 552 kts | 124° |
| 2026-05-01 15:21 | 39.80168 | -72.11896 | 32983 ft | 552 kts | 124° |
| 2026-05-01 15:22 | 39.74440 | -71.99013 | 32983 ft | 551 kts | 125° |
| 2026-05-01 15:22 | 39.70510 | -71.90500 | 33000 ft | 553 kts | 126° |
| 2026-05-01 15:23 | 39.66554 | -71.82028 | 32975 ft | 551 kts | 126° |
| 2026-05-01 15:23 | 39.62596 | -71.73566 | 32980 ft | 553 kts | 126° |
| 2026-05-01 15:24 | 39.58602 | -71.65045 | 32995 ft | 555 kts | 126° |
| 2026-05-01 15:24 | 39.54607 | -71.56535 | 32985 ft | 553 kts | 126° |
| 2026-05-01 15:25 | 39.50611 | -71.48050 | 32982 ft | 556 kts | 126° |
| 2026-05-01 15:25 | 39.46591 | -71.39532 | 32981 ft | 556 kts | 126° |
| 2026-05-01 15:26 | 39.41824 | -71.31783 | 32954 ft | 546 kts | 144° |
| 2026-05-01 15:26 | 39.38966 | -71.28673 | 32943 ft | 532 kts | 153° |
| 2026-05-01 15:26 | 39.35901 | -71.26103 | 32949 ft | 525 kts | 159° |
| 2026-05-01 15:27 | 39.29628 | -71.21399 | 32955 ft | 524 kts | 159° |
| 2026-05-01 15:28 | 39.20165 | -71.14328 | 32961 ft | 525 kts | 159° |
| 2026-05-01 15:28 | 39.13862 | -71.09615 | 32959 ft | 527 kts | 160° |
| 2026-05-01 15:29 | 39.04344 | -71.02507 | 32960 ft | 528 kts | 160° |
| 2026-05-01 15:30 | 38.91645 | -70.93053 | 32964 ft | 532 kts | 160° |
| 2026-05-01 15:31 | 38.72539 | -70.78895 | 32957 ft | 531 kts | 160° |
| 2026-05-01 15:32 | 38.59757 | -70.69474 | 32952 ft | 530 kts | 160° |
| 2026-05-01 15:34 | 38.40643 | -70.55457 | 32963 ft | 532 kts | 160° |